sensor_id;sensor_type;location;lat;lon;timestamp;P1;durP1;ratioP1;P2;durP2;ratioP2
11245;SDS011;59870;50.106;8.580;2023-01-25T00:01:33;15.77;;;14.17;;
11245;SDS011;59870;50.106;8.580;2023-01-25T00:04:01;15.73;;;14.17;;
11245;SDS011;59870;50.106;8.580;2023-01-25T00:06:28;16.87;;;15.37;;
11245;SDS011;59870;50.106;8.580;2023-01-25T00:08:56;16.93;;;15.07;;
11245;SDS011;59870;50.106;8.580;2023-01-25T00:11:23;16.93;;;15.33;;
11245;SDS011;59870;50.106;8.580;2023-01-25T00:13:54;14.80;;;13.50;;
11245;SDS011;59870;50.106;8.580;2023-01-25T00:16:22;17.53;;;15.83;;
11245;SDS011;59870;50.106;8.580;2023-01-25T00:18:50;20.57;;;17.23;;
11245;SDS011;59870;50.106;8.580;2023-01-25T00:21:19;15.53;;;14.13;;
11245;SDS011;59870;50.106;8.580;2023-01-25T00:23:48;15.33;;;13.93;;
11245;SDS011;59870;50.106;8.580;2023-01-25T00:26:16;14.77;;;13.50;;
11245;SDS011;59870;50.106;8.580;2023-01-25T00:28:50;14.07;;;12.70;;
11245;SDS011;59870;50.106;8.580;2023-01-25T00:36:51;14.23;;;13.00;;
11245;SDS011;59870;50.106;8.580;2023-01-25T00:39:24;15.03;;;13.73;;
11245;SDS011;59870;50.106;8.580;2023-01-25T00:41:53;15.87;;;14.33;;
11245;SDS011;59870;50.106;8.580;2023-01-25T00:44:20;15.30;;;13.93;;
11245;SDS011;59870;50.106;8.580;2023-01-25T00:46:48;14.83;;;13.37;;
11245;SDS011;59870;50.106;8.580;2023-01-25T00:49:19;16.30;;;14.80;;
11245;SDS011;59870;50.106;8.580;2023-01-25T00:51:52;16.13;;;14.53;;
11245;SDS011;59870;50.106;8.580;2023-01-25T00:54:21;14.80;;;13.50;;
11245;SDS011;59870;50.106;8.580;2023-01-25T00:56:49;13.93;;;12.63;;
11245;SDS011;59870;50.106;8.580;2023-01-25T00:59:19;15.27;;;13.73;;
11245;SDS011;59870;50.106;8.580;2023-01-25T01:01:47;15.50;;;13.37;;
11245;SDS011;59870;50.106;8.580;2023-01-25T01:04:17;15.33;;;13.83;;
11245;SDS011;59870;50.106;8.580;2023-01-25T01:06:44;16.03;;;13.03;;
11245;SDS011;59870;50.106;8.580;2023-01-25T01:09:13;15.90;;;14.33;;
11245;SDS011;59870;50.106;8.580;2023-01-25T01:11:42;15.20;;;13.73;;
11245;SDS011;59870;50.106;8.580;2023-01-25T01:14:10;15.10;;;13.70;;
11245;SDS011;59870;50.106;8.580;2023-01-25T01:16:38;15.33;;;13.90;;
11245;SDS011;59870;50.106;8.580;2023-01-25T01:19:08;14.57;;;13.33;;
11245;SDS011;59870;50.106;8.580;2023-01-25T01:21:36;14.83;;;13.53;;
11245;SDS011;59870;50.106;8.580;2023-01-25T01:24:04;14.00;;;12.77;;
11245;SDS011;59870;50.106;8.580;2023-01-25T01:26:31;14.10;;;12.97;;
11245;SDS011;59870;50.106;8.580;2023-01-25T01:28:59;13.63;;;12.43;;
11245;SDS011;59870;50.106;8.580;2023-01-25T01:31:27;13.93;;;12.60;;
11245;SDS011;59870;50.106;8.580;2023-01-25T01:34:15;13.87;;;12.57;;
11245;SDS011;59870;50.106;8.580;2023-01-25T01:36:43;12.57;;;11.50;;
11245;SDS011;59870;50.106;8.580;2023-01-25T01:39:11;13.10;;;11.90;;
11245;SDS011;59870;50.106;8.580;2023-01-25T01:41:38;13.63;;;12.47;;
11245;SDS011;59870;50.106;8.580;2023-01-25T01:44:12;13.90;;;12.70;;
11245;SDS011;59870;50.106;8.580;2023-01-25T01:46:51;12.53;;;11.47;;
11245;SDS011;59870;50.106;8.580;2023-01-25T01:49:26;12.63;;;11.57;;
11245;SDS011;59870;50.106;8.580;2023-01-25T01:52:12;13.07;;;11.93;;
11245;SDS011;59870;50.106;8.580;2023-01-25T01:54:48;13.47;;;12.37;;
11245;SDS011;59870;50.106;8.580;2023-01-25T01:57:25;13.13;;;12.13;;
11245;SDS011;59870;50.106;8.580;2023-01-25T02:00:00;14.03;;;12.73;;
11245;SDS011;59870;50.106;8.580;2023-01-25T02:02:40;14.60;;;13.30;;
11245;SDS011;59870;50.106;8.580;2023-01-25T02:07:58;14.77;;;13.57;;
11245;SDS011;59870;50.106;8.580;2023-01-25T02:10:28;14.07;;;12.87;;
11245;SDS011;59870;50.106;8.580;2023-01-25T02:12:56;13.00;;;11.90;;
11245;SDS011;59870;50.106;8.580;2023-01-25T02:15:26;14.40;;;13.00;;
11245;SDS011;59870;50.106;8.580;2023-01-25T02:18:01;13.10;;;11.90;;
11245;SDS011;59870;50.106;8.580;2023-01-25T02:20:36;12.90;;;11.80;;
11245;SDS011;59870;50.106;8.580;2023-01-25T02:26:04;13.77;;;12.67;;
11245;SDS011;59870;50.106;8.580;2023-01-25T02:28:38;12.50;;;11.40;;
11245;SDS011;59870;50.106;8.580;2023-01-25T02:31:06;13.27;;;12.17;;
11245;SDS011;59870;50.106;8.580;2023-01-25T02:33:33;13.30;;;12.27;;
11245;SDS011;59870;50.106;8.580;2023-01-25T02:38:34;13.67;;;12.57;;
11245;SDS011;59870;50.106;8.580;2023-01-25T02:41:09;13.63;;;12.43;;
11245;SDS011;59870;50.106;8.580;2023-01-25T02:43:42;14.27;;;12.83;;
11245;SDS011;59870;50.106;8.580;2023-01-25T02:46:11;11.63;;;10.67;;
11245;SDS011;59870;50.106;8.580;2023-01-25T02:48:46;14.67;;;13.10;;
11245;SDS011;59870;50.106;8.580;2023-01-25T02:51:14;13.07;;;11.87;;
11245;SDS011;59870;50.106;8.580;2023-01-25T02:53:41;13.70;;;12.43;;
11245;SDS011;59870;50.106;8.580;2023-01-25T02:56:09;15.50;;;14.07;;
11245;SDS011;59870;50.106;8.580;2023-01-25T02:58:36;13.73;;;12.43;;
11245;SDS011;59870;50.106;8.580;2023-01-25T03:01:04;12.97;;;11.80;;
11245;SDS011;59870;50.106;8.580;2023-01-25T03:03:32;14.20;;;12.90;;
11245;SDS011;59870;50.106;8.580;2023-01-25T03:06:00;14.43;;;13.17;;
11245;SDS011;59870;50.106;8.580;2023-01-25T03:08:28;14.60;;;13.30;;
11245;SDS011;59870;50.106;8.580;2023-01-25T03:10:57;14.90;;;13.60;;
11245;SDS011;59870;50.106;8.580;2023-01-25T03:13:28;14.80;;;13.40;;
11245;SDS011;59870;50.106;8.580;2023-01-25T03:16:01;14.80;;;13.43;;
11245;SDS011;59870;50.106;8.580;2023-01-25T03:18:30;15.37;;;12.53;;
11245;SDS011;59870;50.106;8.580;2023-01-25T03:21:05;14.83;;;13.37;;
11245;SDS011;59870;50.106;8.580;2023-01-25T03:23:33;13.50;;;12.40;;
11245;SDS011;59870;50.106;8.580;2023-01-25T03:28:47;15.43;;;14.03;;
11245;SDS011;59870;50.106;8.580;2023-01-25T03:31:14;14.70;;;13.40;;
11245;SDS011;59870;50.106;8.580;2023-01-25T03:33:43;13.93;;;12.83;;
11245;SDS011;59870;50.106;8.580;2023-01-25T03:36:11;13.43;;;12.23;;
11245;SDS011;59870;50.106;8.580;2023-01-25T03:38:41;14.67;;;13.20;;
11245;SDS011;59870;50.106;8.580;2023-01-25T03:41:11;13.57;;;12.47;;
11245;SDS011;59870;50.106;8.580;2023-01-25T03:43:39;13.87;;;12.47;;
11245;SDS011;59870;50.106;8.580;2023-01-25T03:46:07;14.33;;;12.97;;
11245;SDS011;59870;50.106;8.580;2023-01-25T03:48:34;15.47;;;14.17;;
11245;SDS011;59870;50.106;8.580;2023-01-25T03:51:03;14.50;;;13.20;;
11245;SDS011;59870;50.106;8.580;2023-01-25T03:53:31;14.13;;;12.67;;
11245;SDS011;59870;50.106;8.580;2023-01-25T03:56:08;14.60;;;13.20;;
11245;SDS011;59870;50.106;8.580;2023-01-25T03:58:38;14.57;;;13.07;;
11245;SDS011;59870;50.106;8.580;2023-01-25T04:01:08;14.20;;;13.03;;
11245;SDS011;59870;50.106;8.580;2023-01-25T04:03:36;13.57;;;12.47;;
11245;SDS011;59870;50.106;8.580;2023-01-25T04:06:05;13.77;;;12.67;;
11245;SDS011;59870;50.106;8.580;2023-01-25T04:08:33;14.43;;;13.10;;
11245;SDS011;59870;50.106;8.580;2023-01-25T04:11:03;13.70;;;12.50;;
11245;SDS011;59870;50.106;8.580;2023-01-25T04:13:33;15.23;;;13.70;;
11245;SDS011;59870;50.106;8.580;2023-01-25T04:16:04;14.07;;;12.87;;
11245;SDS011;59870;50.106;8.580;2023-01-25T04:18:56;14.00;;;12.70;;
11245;SDS011;59870;50.106;8.580;2023-01-25T04:21:25;14.60;;;13.03;;
11245;SDS011;59870;50.106;8.580;2023-01-25T04:23:52;15.70;;;14.27;;
11245;SDS011;59870;50.106;8.580;2023-01-25T04:26:20;14.43;;;13.23;;
11245;SDS011;59870;50.106;8.580;2023-01-25T04:28:53;15.60;;;14.20;;
11245;SDS011;59870;50.106;8.580;2023-01-25T04:31:20;14.60;;;13.30;;
11245;SDS011;59870;50.106;8.580;2023-01-25T04:33:48;14.10;;;12.80;;
11245;SDS011;59870;50.106;8.580;2023-01-25T04:36:18;15.80;;;14.40;;
11245;SDS011;59870;50.106;8.580;2023-01-25T04:38:46;15.03;;;13.53;;
11245;SDS011;59870;50.106;8.580;2023-01-25T04:41:15;15.77;;;14.17;;
11245;SDS011;59870;50.106;8.580;2023-01-25T04:43:44;14.53;;;13.33;;
11245;SDS011;59870;50.106;8.580;2023-01-25T04:46:13;15.00;;;13.70;;
11245;SDS011;59870;50.106;8.580;2023-01-25T04:48:41;14.60;;;13.40;;
11245;SDS011;59870;50.106;8.580;2023-01-25T04:51:09;15.47;;;14.07;;
11245;SDS011;59870;50.106;8.580;2023-01-25T04:53:36;15.13;;;13.80;;
11245;SDS011;59870;50.106;8.580;2023-01-25T04:56:05;14.27;;;12.80;;
11245;SDS011;59870;50.106;8.580;2023-01-25T04:58:43;14.63;;;13.33;;
11245;SDS011;59870;50.106;8.580;2023-01-25T05:01:11;15.10;;;13.73;;
11245;SDS011;59870;50.106;8.580;2023-01-25T05:03:38;14.90;;;13.50;;
11245;SDS011;59870;50.106;8.580;2023-01-25T05:06:14;16.10;;;14.60;;
11245;SDS011;59870;50.106;8.580;2023-01-25T05:08:41;16.43;;;14.83;;
11245;SDS011;59870;50.106;8.580;2023-01-25T05:11:09;15.13;;;13.67;;
11245;SDS011;59870;50.106;8.580;2023-01-25T05:13:36;15.23;;;13.83;;
11245;SDS011;59870;50.106;8.580;2023-01-25T05:16:16;15.63;;;14.23;;
11245;SDS011;59870;50.106;8.580;2023-01-25T05:18:44;16.60;;;14.93;;
11245;SDS011;59870;50.106;8.580;2023-01-25T05:21:19;17.17;;;15.57;;
11245;SDS011;59870;50.106;8.580;2023-01-25T05:24:06;14.50;;;13.20;;
11245;SDS011;59870;50.106;8.580;2023-01-25T05:26:34;15.33;;;13.87;;
11245;SDS011;59870;50.106;8.580;2023-01-25T05:29:20;15.07;;;13.83;;
11245;SDS011;59870;50.106;8.580;2023-01-25T05:31:52;15.43;;;13.83;;
11245;SDS011;59870;50.106;8.580;2023-01-25T05:34:21;14.33;;;13.13;;
11245;SDS011;59870;50.106;8.580;2023-01-25T05:36:48;14.13;;;12.93;;
11245;SDS011;59870;50.106;8.580;2023-01-25T05:39:16;15.10;;;13.70;;
11245;SDS011;59870;50.106;8.580;2023-01-25T05:41:46;15.17;;;13.63;;
11245;SDS011;59870;50.106;8.580;2023-01-25T05:44:14;13.47;;;12.37;;
11245;SDS011;59870;50.106;8.580;2023-01-25T05:46:45;13.40;;;12.23;;
11245;SDS011;59870;50.106;8.580;2023-01-25T05:49:13;15.67;;;14.27;;
11245;SDS011;59870;50.106;8.580;2023-01-25T05:51:41;15.20;;;13.90;;
11245;SDS011;59870;50.106;8.580;2023-01-25T05:54:14;16.67;;;15.27;;
11245;SDS011;59870;50.106;8.580;2023-01-25T05:56:49;15.50;;;14.00;;
11245;SDS011;59870;50.106;8.580;2023-01-25T05:59:17;14.47;;;13.13;;
11245;SDS011;59870;50.106;8.580;2023-01-25T06:01:45;14.53;;;13.10;;
11245;SDS011;59870;50.106;8.580;2023-01-25T06:04:14;13.70;;;12.57;;
11245;SDS011;59870;50.106;8.580;2023-01-25T06:06:42;14.47;;;13.00;;
11245;SDS011;59870;50.106;8.580;2023-01-25T06:09:11;13.47;;;12.27;;
11245;SDS011;59870;50.106;8.580;2023-01-25T06:11:42;13.80;;;12.60;;
11245;SDS011;59870;50.106;8.580;2023-01-25T06:14:10;14.50;;;13.17;;
11245;SDS011;59870;50.106;8.580;2023-01-25T06:16:38;14.70;;;13.50;;
11245;SDS011;59870;50.106;8.580;2023-01-25T06:19:24;16.17;;;14.53;;
11245;SDS011;59870;50.106;8.580;2023-01-25T06:22:05;14.77;;;13.47;;
11245;SDS011;59870;50.106;8.580;2023-01-25T06:24:37;14.87;;;13.47;;
11245;SDS011;59870;50.106;8.580;2023-01-25T06:27:31;16.67;;;15.07;;
11245;SDS011;59870;50.106;8.580;2023-01-25T06:30:00;14.93;;;13.63;;
11245;SDS011;59870;50.106;8.580;2023-01-25T06:32:31;15.53;;;14.03;;
11245;SDS011;59870;50.106;8.580;2023-01-25T06:34:59;15.53;;;14.07;;
11245;SDS011;59870;50.106;8.580;2023-01-25T06:37:26;14.47;;;13.17;;
11245;SDS011;59870;50.106;8.580;2023-01-25T06:39:54;14.60;;;12.97;;
11245;SDS011;59870;50.106;8.580;2023-01-25T06:42:24;13.73;;;12.53;;
11245;SDS011;59870;50.106;8.580;2023-01-25T06:44:52;14.43;;;13.13;;
11245;SDS011;59870;50.106;8.580;2023-01-25T06:47:19;13.43;;;12.23;;
11245;SDS011;59870;50.106;8.580;2023-01-25T06:49:47;14.20;;;12.90;;
11245;SDS011;59870;50.106;8.580;2023-01-25T06:52:14;14.27;;;13.07;;
11245;SDS011;59870;50.106;8.580;2023-01-25T06:54:42;15.23;;;13.83;;
11245;SDS011;59870;50.106;8.580;2023-01-25T06:57:09;13.83;;;12.63;;
11245;SDS011;59870;50.106;8.580;2023-01-25T06:59:38;15.10;;;13.70;;
11245;SDS011;59870;50.106;8.580;2023-01-25T07:02:05;15.50;;;13.83;;
11245;SDS011;59870;50.106;8.580;2023-01-25T07:04:33;13.87;;;12.67;;
11245;SDS011;59870;50.106;8.580;2023-01-25T07:07:01;15.53;;;14.07;;
11245;SDS011;59870;50.106;8.580;2023-01-25T07:09:28;15.30;;;13.97;;
11245;SDS011;59870;50.106;8.580;2023-01-25T07:11:57;15.60;;;14.20;;
11245;SDS011;59870;50.106;8.580;2023-01-25T07:14:25;16.93;;;15.40;;
11245;SDS011;59870;50.106;8.580;2023-01-25T07:26:22;16.87;;;15.00;;
11245;SDS011;59870;50.106;8.580;2023-01-25T07:28:51;17.57;;;15.90;;
11245;SDS011;59870;50.106;8.580;2023-01-25T07:31:19;16.73;;;15.23;;
11245;SDS011;59870;50.106;8.580;2023-01-25T07:49:41;18.63;;;16.73;;
11245;SDS011;59870;50.106;8.580;2023-01-25T07:52:08;17.47;;;15.77;;
11245;SDS011;59870;50.106;8.580;2023-01-25T07:54:36;17.57;;;15.87;;
11245;SDS011;59870;50.106;8.580;2023-01-25T08:00:14;16.47;;;14.77;;
11245;SDS011;59870;50.106;8.580;2023-01-25T08:05:49;16.80;;;15.10;;
11245;SDS011;59870;50.106;8.580;2023-01-25T08:08:50;16.73;;;15.23;;
11245;SDS011;59870;50.106;8.580;2023-01-25T08:11:20;17.30;;;15.60;;
11245;SDS011;59870;50.106;8.580;2023-01-25T08:13:52;19.40;;;17.50;;
11245;SDS011;59870;50.106;8.580;2023-01-25T08:16:21;19.87;;;17.97;;
11245;SDS011;59870;50.106;8.580;2023-01-25T08:18:52;20.53;;;18.47;;
11245;SDS011;59870;50.106;8.580;2023-01-25T08:21:22;22.10;;;19.07;;
11245;SDS011;59870;50.106;8.580;2023-01-25T08:23:53;20.20;;;17.20;;
11245;SDS011;59870;50.106;8.580;2023-01-25T08:26:34;20.43;;;18.30;;
11245;SDS011;59870;50.106;8.580;2023-01-25T08:29:06;23.17;;;18.63;;
11245;SDS011;59870;50.106;8.580;2023-01-25T08:31:34;20.53;;;18.40;;
11245;SDS011;59870;50.106;8.580;2023-01-25T08:34:02;20.90;;;18.50;;
11245;SDS011;59870;50.106;8.580;2023-01-25T08:36:30;21.23;;;19.10;;
11245;SDS011;59870;50.106;8.580;2023-01-25T08:38:59;20.37;;;18.37;;
11245;SDS011;59870;50.106;8.580;2023-01-25T08:41:29;20.87;;;18.63;;
11245;SDS011;59870;50.106;8.580;2023-01-25T08:43:58;21.23;;;18.90;;
11245;SDS011;59870;50.106;8.580;2023-01-25T08:52:24;19.30;;;17.33;;
11245;SDS011;59870;50.106;8.580;2023-01-25T08:54:51;20.63;;;18.47;;
11245;SDS011;59870;50.106;8.580;2023-01-25T08:57:19;20.67;;;18.63;;
11245;SDS011;59870;50.106;8.580;2023-01-25T08:59:48;20.70;;;18.50;;
11245;SDS011;59870;50.106;8.580;2023-01-25T09:02:16;18.57;;;16.77;;
11245;SDS011;59870;50.106;8.580;2023-01-25T09:04:45;17.80;;;16.03;;
11245;SDS011;59870;50.106;8.580;2023-01-25T09:07:12;17.30;;;15.47;;
11245;SDS011;59870;50.106;8.580;2023-01-25T09:09:41;17.70;;;15.83;;
11245;SDS011;59870;50.106;8.580;2023-01-25T09:18:41;18.47;;;16.60;;
11245;SDS011;59870;50.106;8.580;2023-01-25T09:21:24;19.07;;;17.07;;
11245;SDS011;59870;50.106;8.580;2023-01-25T09:24:00;18.13;;;16.23;;
11245;SDS011;59870;50.106;8.580;2023-01-25T09:26:35;20.27;;;18.07;;
11245;SDS011;59870;50.106;8.580;2023-01-25T09:29:05;20.00;;;17.90;;
11245;SDS011;59870;50.106;8.580;2023-01-25T09:31:34;20.80;;;17.97;;
11245;SDS011;59870;50.106;8.580;2023-01-25T09:34:27;24.40;;;19.40;;
11245;SDS011;59870;50.106;8.580;2023-01-25T09:36:58;22.67;;;20.07;;
11245;SDS011;59870;50.106;8.580;2023-01-25T09:39:46;24.27;;;19.63;;
11245;SDS011;59870;50.106;8.580;2023-01-25T09:55:28;21.60;;;18.10;;
11245;SDS011;59870;50.106;8.580;2023-01-25T09:57:57;21.77;;;18.10;;
11245;SDS011;59870;50.106;8.580;2023-01-25T10:00:30;22.30;;;19.27;;
11245;SDS011;59870;50.106;8.580;2023-01-25T10:03:02;23.77;;;21.10;;
11245;SDS011;59870;50.106;8.580;2023-01-25T10:05:33;21.77;;;19.47;;
11245;SDS011;59870;50.106;8.580;2023-01-25T10:08:25;23.83;;;19.57;;
11245;SDS011;59870;50.106;8.580;2023-01-25T10:11:32;23.60;;;18.77;;
11245;SDS011;59870;50.106;8.580;2023-01-25T10:14:05;20.80;;;18.30;;
11245;SDS011;59870;50.106;8.580;2023-01-25T10:16:54;21.40;;;18.33;;
11245;SDS011;59870;50.106;8.580;2023-01-25T10:19:43;25.60;;;20.70;;
11245;SDS011;59870;50.106;8.580;2023-01-25T10:22:36;23.00;;;18.70;;
11245;SDS011;59870;50.106;8.580;2023-01-25T10:25:22;24.80;;;19.70;;
11245;SDS011;59870;50.106;8.580;2023-01-25T10:31:02;22.37;;;19.30;;
11245;SDS011;59870;50.106;8.580;2023-01-25T10:34:02;24.30;;;20.50;;
11245;SDS011;59870;50.106;8.580;2023-01-25T10:36:54;22.63;;;19.07;;
11245;SDS011;59870;50.106;8.580;2023-01-25T10:39:31;21.20;;;17.87;;
11245;SDS011;59870;50.106;8.580;2023-01-25T10:47:16;24.03;;;19.03;;
11245;SDS011;59870;50.106;8.580;2023-01-25T10:50:08;27.83;;;19.53;;
11245;SDS011;59870;50.106;8.580;2023-01-25T10:59:35;22.63;;;18.47;;
11245;SDS011;59870;50.106;8.580;2023-01-25T11:05:54;23.97;;;20.13;;
11245;SDS011;59870;50.106;8.580;2023-01-25T11:08:51;22.80;;;19.63;;
11245;SDS011;59870;50.106;8.580;2023-01-25T11:15:21;25.70;;;20.17;;
11245;SDS011;59870;50.106;8.580;2023-01-25T11:18:04;21.53;;;19.03;;
11245;SDS011;59870;50.106;8.580;2023-01-25T11:20:34;24.77;;;18.20;;
11245;SDS011;59870;50.106;8.580;2023-01-25T11:23:16;24.40;;;18.53;;
11245;SDS011;59870;50.106;8.580;2023-01-25T11:25:52;22.23;;;19.57;;
11245;SDS011;59870;50.106;8.580;2023-01-25T11:28:21;23.90;;;20.17;;
11245;SDS011;59870;50.106;8.580;2023-01-25T11:43:04;25.27;;;19.63;;
11245;SDS011;59870;50.106;8.580;2023-01-25T11:51:03;22.80;;;19.47;;
11245;SDS011;59870;50.106;8.580;2023-01-25T12:08:11;23.73;;;19.13;;
11245;SDS011;59870;50.106;8.580;2023-01-25T12:10:51;22.53;;;19.07;;
11245;SDS011;59870;50.106;8.580;2023-01-25T12:33:40;25.23;;;20.43;;
11245;SDS011;59870;50.106;8.580;2023-01-25T12:36:29;23.20;;;19.23;;
11245;SDS011;59870;50.106;8.580;2023-01-25T12:41:49;23.03;;;18.87;;
11245;SDS011;59870;50.106;8.580;2023-01-25T12:44:40;22.20;;;18.33;;
11245;SDS011;59870;50.106;8.580;2023-01-25T12:47:31;23.70;;;20.33;;
11245;SDS011;59870;50.106;8.580;2023-01-25T12:52:54;23.60;;;18.87;;
11245;SDS011;59870;50.106;8.580;2023-01-25T12:55:26;23.10;;;19.03;;
11245;SDS011;59870;50.106;8.580;2023-01-25T12:57:57;23.37;;;19.93;;
11245;SDS011;59870;50.106;8.580;2023-01-25T13:03:58;25.63;;;19.67;;
11245;SDS011;59870;50.106;8.580;2023-01-25T13:07:06;23.03;;;19.50;;
11245;SDS011;59870;50.106;8.580;2023-01-25T13:12:59;24.17;;;19.83;;
11245;SDS011;59870;50.106;8.580;2023-01-25T13:15:34;22.90;;;18.80;;
11245;SDS011;59870;50.106;8.580;2023-01-25T13:21:38;21.97;;;19.40;;
11245;SDS011;59870;50.106;8.580;2023-01-25T13:24:15;26.63;;;20.23;;
11245;SDS011;59870;50.106;8.580;2023-01-25T13:32:12;21.30;;;18.40;;
11245;SDS011;59870;50.106;8.580;2023-01-25T13:35:00;21.23;;;18.33;;
11245;SDS011;59870;50.106;8.580;2023-01-25T13:37:29;20.57;;;18.37;;
11245;SDS011;59870;50.106;8.580;2023-01-25T13:40:03;22.83;;;19.20;;
11245;SDS011;59870;50.106;8.580;2023-01-25T13:42:33;21.93;;;18.13;;
11245;SDS011;59870;50.106;8.580;2023-01-25T13:45:16;23.27;;;19.47;;
11245;SDS011;59870;50.106;8.580;2023-01-25T13:48:33;28.40;;;20.17;;
11245;SDS011;59870;50.106;8.580;2023-01-25T13:50:35;24.33;;;19.33;;
11245;SDS011;59870;50.106;8.580;2023-01-25T13:55:42;25.60;;;20.03;;
11245;SDS011;59870;50.106;8.580;2023-01-25T13:58:16;28.47;;;21.03;;
11245;SDS011;59870;50.106;8.580;2023-01-25T14:00:52;27.50;;;19.37;;
11245;SDS011;59870;50.106;8.580;2023-01-25T14:06:53;22.77;;;18.53;;
11245;SDS011;59870;50.106;8.580;2023-01-25T14:09:17;22.97;;;18.73;;
11245;SDS011;59870;50.106;8.580;2023-01-25T14:11:51;22.37;;;18.73;;
11245;SDS011;59870;50.106;8.580;2023-01-25T14:14:57;24.60;;;19.73;;
11245;SDS011;59870;50.106;8.580;2023-01-25T14:21:46;21.13;;;18.83;;
11245;SDS011;59870;50.106;8.580;2023-01-25T14:33:26;24.03;;;18.43;;
11245;SDS011;59870;50.106;8.580;2023-01-25T14:36:06;24.00;;;19.50;;
11245;SDS011;59870;50.106;8.580;2023-01-25T14:38:50;26.10;;;19.87;;
11245;SDS011;59870;50.106;8.580;2023-01-25T14:41:30;23.57;;;20.27;;
11245;SDS011;59870;50.106;8.580;2023-01-25T14:44:01;22.10;;;19.47;;
11245;SDS011;59870;50.106;8.580;2023-01-25T14:46:37;25.07;;;20.20;;
11245;SDS011;59870;50.106;8.580;2023-01-25T14:49:17;26.10;;;20.50;;
11245;SDS011;59870;50.106;8.580;2023-01-25T14:54:36;26.57;;;19.87;;
11245;SDS011;59870;50.106;8.580;2023-01-25T14:57:28;24.17;;;19.73;;
11245;SDS011;59870;50.106;8.580;2023-01-25T14:59:59;25.77;;;20.40;;
11245;SDS011;59870;50.106;8.580;2023-01-25T15:05:22;24.20;;;20.57;;
11245;SDS011;59870;50.106;8.580;2023-01-25T15:07:52;29.27;;;20.27;;
11245;SDS011;59870;50.106;8.580;2023-01-25T15:10:28;26.27;;;19.67;;
11245;SDS011;59870;50.106;8.580;2023-01-25T15:15:48;27.30;;;19.93;;
11245;SDS011;59870;50.106;8.580;2023-01-25T15:21:13;25.27;;;19.63;;
11245;SDS011;59870;50.106;8.580;2023-01-25T15:23:45;25.67;;;19.43;;
11245;SDS011;59870;50.106;8.580;2023-01-25T15:26:17;26.00;;;20.17;;
11245;SDS011;59870;50.106;8.580;2023-01-25T15:28:51;26.10;;;18.90;;
11245;SDS011;59870;50.106;8.580;2023-01-25T15:34:19;25.43;;;20.67;;
11245;SDS011;59870;50.106;8.580;2023-01-25T15:37:13;23.90;;;18.80;;
11245;SDS011;59870;50.106;8.580;2023-01-25T15:39:44;24.97;;;19.90;;
11245;SDS011;59870;50.106;8.580;2023-01-25T15:42:25;27.63;;;20.00;;
11245;SDS011;59870;50.106;8.580;2023-01-25T15:45:08;25.20;;;19.50;;
11245;SDS011;59870;50.106;8.580;2023-01-25T15:47:50;25.37;;;19.63;;
11245;SDS011;59870;50.106;8.580;2023-01-25T15:50:20;22.93;;;18.93;;
11245;SDS011;59870;50.106;8.580;2023-01-25T15:53:02;26.50;;;19.80;;
11245;SDS011;59870;50.106;8.580;2023-01-25T15:55:32;24.03;;;19.00;;
11245;SDS011;59870;50.106;8.580;2023-01-25T15:58:20;27.73;;;20.60;;
11245;SDS011;59870;50.106;8.580;2023-01-25T16:01:06;24.90;;;19.60;;
11245;SDS011;59870;50.106;8.580;2023-01-25T16:03:36;27.40;;;21.27;;
11245;SDS011;59870;50.106;8.580;2023-01-25T16:07:24;28.77;;;20.97;;
11245;SDS011;59870;50.106;8.580;2023-01-25T16:10:22;27.00;;;20.80;;
11245;SDS011;59870;50.106;8.580;2023-01-25T16:13:38;26.60;;;20.97;;
11245;SDS011;59870;50.106;8.580;2023-01-25T16:16:23;30.40;;;21.00;;
11245;SDS011;59870;50.106;8.580;2023-01-25T16:19:02;27.33;;;20.77;;
11245;SDS011;59870;50.106;8.580;2023-01-25T16:21:32;29.50;;;21.60;;
11245;SDS011;59870;50.106;8.580;2023-01-25T16:27:37;25.73;;;19.97;;
11245;SDS011;59870;50.106;8.580;2023-01-25T16:30:07;27.27;;;20.73;;
11245;SDS011;59870;50.106;8.580;2023-01-25T16:32:56;31.30;;;21.90;;
11245;SDS011;59870;50.106;8.580;2023-01-25T16:35:23;28.40;;;20.57;;
11245;SDS011;59870;50.106;8.580;2023-01-25T16:37:51;28.87;;;21.40;;
11245;SDS011;59870;50.106;8.580;2023-01-25T16:42:50;27.77;;;20.70;;
11245;SDS011;59870;50.106;8.580;2023-01-25T16:45:18;26.53;;;21.13;;
11245;SDS011;59870;50.106;8.580;2023-01-25T16:47:46;26.20;;;21.03;;
11245;SDS011;59870;50.106;8.580;2023-01-25T16:50:15;25.37;;;20.17;;
11245;SDS011;59870;50.106;8.580;2023-01-25T16:52:48;23.90;;;20.13;;
11245;SDS011;59870;50.106;8.580;2023-01-25T16:55:18;25.13;;;19.57;;
11245;SDS011;59870;50.106;8.580;2023-01-25T16:57:48;30.37;;;20.40;;
11245;SDS011;59870;50.106;8.580;2023-01-25T17:00:16;31.47;;;21.83;;
11245;SDS011;59870;50.106;8.580;2023-01-25T17:02:44;28.90;;;20.90;;
11245;SDS011;59870;50.106;8.580;2023-01-25T17:05:28;30.77;;;22.40;;
11245;SDS011;59870;50.106;8.580;2023-01-25T17:07:59;29.70;;;21.63;;
11245;SDS011;59870;50.106;8.580;2023-01-25T17:13:23;32.33;;;22.50;;
11245;SDS011;59870;50.106;8.580;2023-01-25T17:15:54;29.20;;;21.73;;
11245;SDS011;59870;50.106;8.580;2023-01-25T17:18:22;28.93;;;21.00;;
11245;SDS011;59870;50.106;8.580;2023-01-25T17:21:09;31.07;;;21.53;;
11245;SDS011;59870;50.106;8.580;2023-01-25T17:23:37;29.10;;;21.03;;
11245;SDS011;59870;50.106;8.580;2023-01-25T17:26:06;29.63;;;21.50;;
11245;SDS011;59870;50.106;8.580;2023-01-25T17:28:38;28.87;;;20.57;;
11245;SDS011;59870;50.106;8.580;2023-01-25T17:34:25;29.20;;;21.47;;
11245;SDS011;59870;50.106;8.580;2023-01-25T17:49:45;45.17;;;29.07;;
11245;SDS011;59870;50.106;8.580;2023-01-25T17:52:14;33.73;;;22.07;;
11245;SDS011;59870;50.106;8.580;2023-01-25T17:54:49;29.40;;;20.97;;
11245;SDS011;59870;50.106;8.580;2023-01-25T17:57:31;30.43;;;21.77;;
11245;SDS011;59870;50.106;8.580;2023-01-25T17:59:59;32.17;;;23.27;;
11245;SDS011;59870;50.106;8.580;2023-01-25T18:02:27;33.27;;;23.10;;
11245;SDS011;59870;50.106;8.580;2023-01-25T18:04:56;35.20;;;24.07;;
11245;SDS011;59870;50.106;8.580;2023-01-25T18:07:24;33.70;;;23.13;;
11245;SDS011;59870;50.106;8.580;2023-01-25T18:09:51;29.70;;;21.30;;
11245;SDS011;59870;50.106;8.580;2023-01-25T18:12:18;32.83;;;22.07;;
11245;SDS011;59870;50.106;8.580;2023-01-25T18:14:46;30.33;;;22.40;;
11245;SDS011;59870;50.106;8.580;2023-01-25T18:20:36;30.33;;;22.53;;
11245;SDS011;59870;50.106;8.580;2023-01-25T18:23:06;32.00;;;22.77;;
11245;SDS011;59870;50.106;8.580;2023-01-25T18:25:34;35.80;;;26.00;;
11245;SDS011;59870;50.106;8.580;2023-01-25T18:28:02;29.73;;;23.73;;
11245;SDS011;59870;50.106;8.580;2023-01-25T18:30:34;37.87;;;26.97;;
11245;SDS011;59870;50.106;8.580;2023-01-25T18:33:05;30.37;;;23.77;;
11245;SDS011;59870;50.106;8.580;2023-01-25T18:35:33;31.03;;;22.43;;
11245;SDS011;59870;50.106;8.580;2023-01-25T18:38:02;34.63;;;23.73;;
11245;SDS011;59870;50.106;8.580;2023-01-25T18:40:30;35.03;;;24.90;;
11245;SDS011;59870;50.106;8.580;2023-01-25T18:42:58;33.37;;;24.13;;
11245;SDS011;59870;50.106;8.580;2023-01-25T18:45:25;34.60;;;25.00;;
11245;SDS011;59870;50.106;8.580;2023-01-25T18:47:53;36.87;;;24.90;;